This is the latest recevied weather packets stored in our database for station/object KM4KMS. If no packets are shown the sender has not sent any weather packets the latest 10 day(s).
| Time | Temp. | Humidity | Pressure | Rain* | Wind** | Luminosity | Snow |
|---|---|---|---|---|---|---|---|
| 1777135705 | 20° C | 80% | 1010.8 hPa | 0 mm | - | 245 W/m² | - |
| 1777135402 | 21.11° C | 77% | 1010.9 hPa | 0 mm | - | 188 W/m² | - |
| 1777135099 | 21.67° C | 75% | 1010.6 hPa | 0 mm | - | 756 W/m² | - |
| 1777134796 | 21.11° C | 76% | 1010.7 hPa | 0 mm | - | 226 W/m² | - |
| 1777134491 | 21.11° C | 80% | 1011 hPa | 0 mm | - | 875 W/m² | - |
| 1777134188 | 21.11° C | 79% | 1010.9 hPa | 0 mm | - | 233 W/m² | - |
| 1777133885 | 21.67° C | 78% | 1010.7 hPa | 0 mm | - | 440 W/m² | - |
| 1777133581 | 21.67° C | 77% | 1010.7 hPa | 0 mm | - | 789 W/m² | - |
| 1777133280 | 20.56° C | 82% | 1010.7 hPa | 0 mm | - | 784 W/m² | - |
| 1777132980 | 20° C | 83% | 1010.8 hPa | 0 mm | - | 402 W/m² | - |
| 1777132676 | 20° C | 84% | 1010.8 hPa | 0 mm | - | 245 W/m² | - |
| 1777132373 | 20.56° C | 81% | 1010.8 hPa | 0 mm | - | 215 W/m² | - |
| 1777132070 | 20° C | 82% | 1010.9 hPa | 0 mm | - | 267 W/m² | - |
| 1777131765 | 18.89° C | 85% | 1010.8 hPa | 0 mm | - | 303 W/m² | - |
| 1777131462 | 20° C | 84% | 1010.8 hPa | 0 mm | - | 708 W/m² | - |
| 1777131161 | 20° C | 84% | 1010.9 hPa | 0 mm | - | 267 W/m² | - |
| 1777130858 | 19.44° C | 86% | 1010.6 hPa | 0 mm | - | 562 W/m² | - |
| 1777130554 | 19.44° C | 86% | 1010.7 hPa | 0 mm | - | 261 W/m² | - |
| 1777130250 | 20° C | 85% | 1010.7 hPa | 0 mm | - | 212 W/m² | - |
| 1777129947 | 19.44° C | 86% | 1010.9 hPa | 0 mm | - | 386 W/m² | - |
| 1777129641 | 19.44° C | 86% | 1010.7 hPa | 0 mm | - | 393 W/m² | - |
* Rain latest hour (hover to see other rain measurements)
** Current wind speed in m/s (hover to see current wind gust speed)